sensor_id;sensor_type;location;lat;lon;timestamp;pressure;altitude;pressure_sealevel;temperature;humidity
72558;BME280;60583;50.094;8.748;2023-09-08T00:00:29;100621.81;;;19.11;79.68
72558;BME280;60583;50.094;8.748;2023-09-08T00:02:55;100648.44;;;19.20;80.13
72558;BME280;60583;50.094;8.748;2023-09-08T00:05:20;100645.56;;;19.09;80.29
72558;BME280;60583;50.094;8.748;2023-09-08T00:07:46;100635.91;;;18.97;80.43
72558;BME280;60583;50.094;8.748;2023-09-08T00:10:17;100645.00;;;19.07;80.43
72558;BME280;60583;50.094;8.748;2023-09-08T00:12:43;100641.59;;;18.95;80.96
72558;BME280;60583;50.094;8.748;2023-09-08T00:15:09;100638.81;;;18.90;81.26
72558;BME280;60583;50.094;8.748;2023-09-08T00:17:34;100636.09;;;18.90;81.19
72558;BME280;60583;50.094;8.748;2023-09-08T00:20:01;100635.41;;;18.83;81.52
72558;BME280;60583;50.094;8.748;2023-09-08T00:22:31;100643.78;;;18.82;81.83
72558;BME280;60583;50.094;8.748;2023-09-08T00:24:56;100635.25;;;18.73;81.70
72558;BME280;60583;50.094;8.748;2023-09-08T00:27:21;100628.06;;;18.79;81.24
72558;BME280;60583;50.094;8.748;2023-09-08T00:29:47;100623.31;;;18.69;81.80
72558;BME280;60583;50.094;8.748;2023-09-08T00:32:12;100639.03;;;18.72;81.87
72558;BME280;60583;50.094;8.748;2023-09-08T00:34:40;100635.59;;;18.77;82.01
72558;BME280;60583;50.094;8.748;2023-09-08T00:37:06;100640.53;;;18.80;81.56
72558;BME280;60583;50.094;8.748;2023-09-08T00:39:34;100640.19;;;18.76;81.71
72558;BME280;60583;50.094;8.748;2023-09-08T00:42:00;100632.34;;;18.75;81.55
72558;BME280;60583;50.094;8.748;2023-09-08T00:44:25;100625.06;;;18.75;81.39
72558;BME280;60583;50.094;8.748;2023-09-08T00:46:50;100605.38;;;18.63;81.39
72558;BME280;60583;50.094;8.748;2023-09-08T00:49:16;100618.41;;;18.66;81.43
72558;BME280;60583;50.094;8.748;2023-09-08T00:51:42;100607.28;;;18.63;81.43
72558;BME280;60583;50.094;8.748;2023-09-08T00:54:07;100631.50;;;18.74;81.30
72558;BME280;60583;50.094;8.748;2023-09-08T00:56:34;100622.34;;;18.75;81.38
72558;BME280;60583;50.094;8.748;2023-09-08T00:59:02;100632.63;;;18.78;81.03
72558;BME280;60583;50.094;8.748;2023-09-08T01:01:28;100606.78;;;18.66;81.16
72558;BME280;60583;50.094;8.748;2023-09-08T01:03:53;100616.03;;;18.70;80.88
72558;BME280;60583;50.094;8.748;2023-09-08T01:06:19;100620.06;;;18.67;81.19
72558;BME280;60583;50.094;8.748;2023-09-08T01:08:44;100626.09;;;18.74;81.05
72558;BME280;60583;50.094;8.748;2023-09-08T01:11:10;100612.91;;;18.61;80.94
72558;BME280;60583;50.094;8.748;2023-09-08T01:13:36;100628.72;;;18.69;80.77
72558;BME280;60583;50.094;8.748;2023-09-08T01:16:01;100621.03;;;18.61;81.00
72558;BME280;60583;50.094;8.748;2023-09-08T01:18:27;100617.59;;;18.49;81.32
72558;BME280;60583;50.094;8.748;2023-09-08T01:21:05;100612.31;;;18.42;81.46
72558;BME280;60583;50.094;8.748;2023-09-08T01:23:55;100620.16;;;18.44;81.66
72558;BME280;60583;50.094;8.748;2023-09-08T01:26:27;100638.44;;;18.54;81.42
72558;BME280;60583;50.094;8.748;2023-09-08T01:28:57;100622.22;;;18.37;82.25
72558;BME280;60583;50.094;8.748;2023-09-08T01:31:22;100625.38;;;18.34;81.92
72558;BME280;60583;50.094;8.748;2023-09-08T01:33:48;100636.84;;;18.41;81.98
72558;BME280;60583;50.094;8.748;2023-09-08T01:36:13;100620.91;;;18.39;81.61
72558;BME280;60583;50.094;8.748;2023-09-08T01:38:39;100635.91;;;18.47;81.79
72558;BME280;60583;50.094;8.748;2023-09-08T01:41:05;100628.53;;;18.42;82.00
72558;BME280;60583;50.094;8.748;2023-09-08T01:43:30;100620.47;;;18.31;82.19
72558;BME280;60583;50.094;8.748;2023-09-08T01:45:55;100631.44;;;18.41;82.16
72558;BME280;60583;50.094;8.748;2023-09-08T01:48:21;100617.84;;;18.36;82.21
72558;BME280;60583;50.094;8.748;2023-09-08T01:50:46;100623.75;;;18.33;82.50
72558;BME280;60583;50.094;8.748;2023-09-08T01:53:13;100618.84;;;18.30;82.45
72558;BME280;60583;50.094;8.748;2023-09-08T01:55:38;100622.75;;;18.22;82.53
72558;BME280;60583;50.094;8.748;2023-09-08T01:58:03;100618.66;;;18.20;82.34
72558;BME280;60583;50.094;8.748;2023-09-08T02:00:29;100625.38;;;18.17;82.35
72558;BME280;60583;50.094;8.748;2023-09-08T02:02:54;100619.97;;;18.17;82.44
72558;BME280;60583;50.094;8.748;2023-09-08T02:05:19;100614.69;;;18.11;82.13
72558;BME280;60583;50.094;8.748;2023-09-08T02:07:45;100616.84;;;18.09;82.75
72558;BME280;60583;50.094;8.748;2023-09-08T02:10:10;100621.28;;;18.15;82.71
72558;BME280;60583;50.094;8.748;2023-09-08T02:12:36;100604.72;;;17.95;83.30
72558;BME280;60583;50.094;8.748;2023-09-08T02:15:01;100619.25;;;17.94;83.90
72558;BME280;60583;50.094;8.748;2023-09-08T02:17:27;100603.91;;;17.82;84.30
72558;BME280;60583;50.094;8.748;2023-09-08T02:19:52;100615.63;;;17.88;83.92
72558;BME280;60583;50.094;8.748;2023-09-08T02:22:18;100618.19;;;17.95;83.61
72558;BME280;60583;50.094;8.748;2023-09-08T02:24:43;100620.38;;;17.98;83.45
72558;BME280;60583;50.094;8.748;2023-09-08T02:27:09;100623.69;;;18.00;83.26
72558;BME280;60583;50.094;8.748;2023-09-08T02:29:34;100626.50;;;18.05;83.37
72558;BME280;60583;50.094;8.748;2023-09-08T02:32:00;100625.47;;;17.94;83.31
72558;BME280;60583;50.094;8.748;2023-09-08T02:34:26;100609.31;;;17.82;83.29
72558;BME280;60583;50.094;8.748;2023-09-08T02:36:51;100630.63;;;17.96;83.20
72558;BME280;60583;50.094;8.748;2023-09-08T02:39:16;100619.41;;;17.87;83.24
72558;BME280;60583;50.094;8.748;2023-09-08T02:41:42;100622.59;;;17.72;83.40
72558;BME280;60583;50.094;8.748;2023-09-08T02:44:07;100624.41;;;17.67;83.52
72558;BME280;60583;50.094;8.748;2023-09-08T02:46:33;100618.28;;;17.60;83.76
72558;BME280;60583;50.094;8.748;2023-09-08T02:48:58;100625.44;;;17.66;83.37
72558;BME280;60583;50.094;8.748;2023-09-08T02:51:24;100631.09;;;17.64;83.40
72558;BME280;60583;50.094;8.748;2023-09-08T02:53:49;100639.75;;;17.66;83.46
72558;BME280;60583;50.094;8.748;2023-09-08T02:56:14;100636.28;;;17.54;83.98
72558;BME280;60583;50.094;8.748;2023-09-08T02:58:40;100625.91;;;17.51;83.93
72558;BME280;60583;50.094;8.748;2023-09-08T03:01:15;100641.88;;;17.64;83.93
72558;BME280;60583;50.094;8.748;2023-09-08T03:03:41;100598.97;;;17.40;84.12
72558;BME280;60583;50.094;8.748;2023-09-08T03:06:08;100621.81;;;17.49;83.80
72558;BME280;60583;50.094;8.748;2023-09-08T03:08:34;100629.06;;;17.60;83.79
72558;BME280;60583;50.094;8.748;2023-09-08T03:11:01;100623.69;;;17.60;83.88
72558;BME280;60583;50.094;8.748;2023-09-08T03:13:26;100608.09;;;17.50;83.75
72558;BME280;60583;50.094;8.748;2023-09-08T03:15:52;100617.13;;;17.56;83.51
72558;BME280;60583;50.094;8.748;2023-09-08T03:18:18;100623.13;;;17.46;83.98
72558;BME280;60583;50.094;8.748;2023-09-08T03:20:48;100633.19;;;17.51;84.28
72558;BME280;60583;50.094;8.748;2023-09-08T03:23:13;100620.19;;;17.36;84.11
72558;BME280;60583;50.094;8.748;2023-09-08T03:25:39;100638.72;;;17.44;83.71
72558;BME280;60583;50.094;8.748;2023-09-08T03:28:04;100625.47;;;17.31;83.92
72558;BME280;60583;50.094;8.748;2023-09-08T03:30:29;100630.63;;;17.33;84.31
72558;BME280;60583;50.094;8.748;2023-09-08T03:32:55;100626.06;;;17.33;83.98
72558;BME280;60583;50.094;8.748;2023-09-08T03:35:20;100622.91;;;17.36;84.30
72558;BME280;60583;50.094;8.748;2023-09-08T03:37:46;100626.06;;;17.33;84.42
72558;BME280;60583;50.094;8.748;2023-09-08T03:40:11;100625.69;;;17.41;83.84
72558;BME280;60583;50.094;8.748;2023-09-08T03:42:36;100632.03;;;17.35;84.21
72558;BME280;60583;50.094;8.748;2023-09-08T03:45:02;100619.88;;;17.21;84.35
72558;BME280;60583;50.094;8.748;2023-09-08T03:47:27;100605.47;;;17.15;84.16
72558;BME280;60583;50.094;8.748;2023-09-08T03:49:52;100618.25;;;17.08;84.49
72558;BME280;60583;50.094;8.748;2023-09-08T03:52:18;100610.50;;;17.00;84.87
72558;BME280;60583;50.094;8.748;2023-09-08T03:54:43;100620.00;;;17.03;84.42
72558;BME280;60583;50.094;8.748;2023-09-08T03:57:09;100620.25;;;17.01;84.87
72558;BME280;60583;50.094;8.748;2023-09-08T03:59:35;100607.22;;;16.87;85.40
72558;BME280;60583;50.094;8.748;2023-09-08T04:02:00;100623.75;;;16.90;85.57
72558;BME280;60583;50.094;8.748;2023-09-08T04:04:26;100636.50;;;16.95;85.30
72558;BME280;60583;50.094;8.748;2023-09-08T04:06:51;100622.09;;;16.78;85.45
72558;BME280;60583;50.094;8.748;2023-09-08T04:09:17;100633.13;;;16.88;85.75
72558;BME280;60583;50.094;8.748;2023-09-08T04:11:42;100633.72;;;17.01;85.18
72558;BME280;60583;50.094;8.748;2023-09-08T04:14:08;100626.91;;;16.99;85.08
72558;BME280;60583;50.094;8.748;2023-09-08T04:16:33;100624.09;;;16.94;85.45
72558;BME280;60583;50.094;8.748;2023-09-08T04:18:58;100644.72;;;17.00;85.46
72558;BME280;60583;50.094;8.748;2023-09-08T04:21:24;100640.03;;;16.95;85.88
72558;BME280;60583;50.094;8.748;2023-09-08T04:23:49;100647.06;;;16.96;85.53
72558;BME280;60583;50.094;8.748;2023-09-08T04:26:14;100657.84;;;16.96;85.94
72558;BME280;60583;50.094;8.748;2023-09-08T04:28:40;100641.78;;;16.90;86.49
72558;BME280;60583;50.094;8.748;2023-09-08T04:31:05;100651.06;;;16.94;86.02
72558;BME280;60583;50.094;8.748;2023-09-08T04:33:30;100651.25;;;16.92;85.69
72558;BME280;60583;50.094;8.748;2023-09-08T04:35:56;100635.56;;;16.78;85.52
72558;BME280;60583;50.094;8.748;2023-09-08T04:38:21;100642.59;;;16.79;85.99
72558;BME280;60583;50.094;8.748;2023-09-08T04:40:47;100647.50;;;16.82;85.56
72558;BME280;60583;50.094;8.748;2023-09-08T04:43:12;100641.66;;;16.85;86.27
72558;BME280;60583;50.094;8.748;2023-09-08T04:45:37;100655.25;;;16.90;85.98
72558;BME280;60583;50.094;8.748;2023-09-08T04:48:04;100656.06;;;16.79;86.47
72558;BME280;60583;50.094;8.748;2023-09-08T04:50:30;100659.34;;;16.81;86.45
72558;BME280;60583;50.094;8.748;2023-09-08T04:52:55;100651.34;;;16.74;86.63
72558;BME280;60583;50.094;8.748;2023-09-08T04:55:20;100659.56;;;16.79;87.05
72558;BME280;60583;50.094;8.748;2023-09-08T04:57:46;100647.63;;;16.75;86.93
72558;BME280;60583;50.094;8.748;2023-09-08T05:00:12;100658.03;;;16.72;87.12
72558;BME280;60583;50.094;8.748;2023-09-08T05:02:37;100655.94;;;16.74;86.79
72558;BME280;60583;50.094;8.748;2023-09-08T05:05:03;100667.31;;;16.76;87.39
72558;BME280;60583;50.094;8.748;2023-09-08T05:07:29;100677.63;;;16.79;87.55
72558;BME280;60583;50.094;8.748;2023-09-08T05:09:54;100674.56;;;16.75;88.17
72558;BME280;60583;50.094;8.748;2023-09-08T05:12:19;100653.09;;;16.57;88.09
72558;BME280;60583;50.094;8.748;2023-09-08T05:14:45;100660.47;;;16.62;88.25
72558;BME280;60583;50.094;8.748;2023-09-08T05:17:10;100684.69;;;16.62;89.13
72558;BME280;60583;50.094;8.748;2023-09-08T05:19:36;100668.81;;;16.42;89.50
72558;BME280;60583;50.094;8.748;2023-09-08T05:22:01;100674.53;;;16.64;88.81
72558;BME280;60583;50.094;8.748;2023-09-08T05:24:27;100678.59;;;16.54;89.07
72558;BME280;60583;50.094;8.748;2023-09-08T05:26:52;100678.53;;;16.61;88.86
72558;BME280;60583;50.094;8.748;2023-09-08T05:29:17;100674.19;;;16.72;88.28
72558;BME280;60583;50.094;8.748;2023-09-08T05:31:43;100686.41;;;16.86;87.62
72558;BME280;60583;50.094;8.748;2023-09-08T05:34:09;100683.13;;;16.84;88.08
72558;BME280;60583;50.094;8.748;2023-09-08T05:36:35;100677.03;;;16.88;86.85
72558;BME280;60583;50.094;8.748;2023-09-08T05:39:05;100680.31;;;16.90;87.18
72558;BME280;60583;50.094;8.748;2023-09-08T05:41:30;100679.41;;;17.08;86.66
72558;BME280;60583;50.094;8.748;2023-09-08T05:43:57;100681.03;;;17.20;86.15
72558;BME280;60583;50.094;8.748;2023-09-08T05:46:22;100665.56;;;17.16;86.01
72558;BME280;60583;50.094;8.748;2023-09-08T05:48:48;100680.91;;;17.27;85.29
72558;BME280;60583;50.094;8.748;2023-09-08T05:51:14;100679.97;;;17.33;84.13
72558;BME280;60583;50.094;8.748;2023-09-08T05:53:40;100685.97;;;17.47;83.22
72558;BME280;60583;50.094;8.748;2023-09-08T05:56:06;100694.28;;;17.68;82.81
72558;BME280;60583;50.094;8.748;2023-09-08T05:58:32;100680.78;;;17.68;81.93
72558;BME280;60583;50.094;8.748;2023-09-08T06:00:59;100697.28;;;17.83;81.97
72558;BME280;60583;50.094;8.748;2023-09-08T06:03:25;100691.28;;;17.93;81.93
72558;BME280;60583;50.094;8.748;2023-09-08T06:05:50;100698.19;;;18.01;81.40
72558;BME280;60583;50.094;8.748;2023-09-08T06:08:16;100697.66;;;18.15;81.10
72558;BME280;60583;50.094;8.748;2023-09-08T06:10:41;100679.00;;;18.14;80.62
72558;BME280;60583;50.094;8.748;2023-09-08T06:13:06;100692.66;;;18.35;80.03
72558;BME280;60583;50.094;8.748;2023-09-08T06:15:32;100688.16;;;18.41;79.59
72558;BME280;60583;50.094;8.748;2023-09-08T06:17:58;100698.63;;;18.49;79.17
72558;BME280;60583;50.094;8.748;2023-09-08T06:20:23;100689.88;;;18.59;78.71
72558;BME280;60583;50.094;8.748;2023-09-08T06:22:50;100692.34;;;18.77;78.65
72558;BME280;60583;50.094;8.748;2023-09-08T06:25:15;100669.84;;;18.88;76.58
72558;BME280;60583;50.094;8.748;2023-09-08T06:27:41;100683.09;;;19.06;74.63
72558;BME280;60583;50.094;8.748;2023-09-08T06:30:07;100685.88;;;19.28;74.45
72558;BME280;60583;50.094;8.748;2023-09-08T06:32:32;100692.59;;;19.42;73.82
72558;BME280;60583;50.094;8.748;2023-09-08T06:34:58;100692.78;;;19.57;73.42
72558;BME280;60583;50.094;8.748;2023-09-08T06:37:23;100693.44;;;19.64;72.46
72558;BME280;60583;50.094;8.748;2023-09-08T06:39:48;100698.53;;;19.82;71.55
72558;BME280;60583;50.094;8.748;2023-09-08T06:42:14;100701.09;;;19.89;70.88
72558;BME280;60583;50.094;8.748;2023-09-08T06:44:39;100691.75;;;20.01;70.62
72558;BME280;60583;50.094;8.748;2023-09-08T06:47:04;100696.59;;;20.21;69.92
72558;BME280;60583;50.094;8.748;2023-09-08T06:49:32;100692.25;;;20.42;69.49
72558;BME280;60583;50.094;8.748;2023-09-08T06:51:57;100692.25;;;20.42;68.47
72558;BME280;60583;50.094;8.748;2023-09-08T06:54:23;100686.91;;;20.52;67.45
72558;BME280;60583;50.094;8.748;2023-09-08T06:56:48;100702.19;;;20.63;67.80
72558;BME280;60583;50.094;8.748;2023-09-08T06:59:14;100690.63;;;20.72;67.20
72558;BME280;60583;50.094;8.748;2023-09-08T07:01:39;100684.94;;;20.74;67.29
72558;BME280;60583;50.094;8.748;2023-09-08T07:04:05;100681.13;;;21.02;67.15
72558;BME280;60583;50.094;8.748;2023-09-08T07:06:30;100682.72;;;21.02;65.91
72558;BME280;60583;50.094;8.748;2023-09-08T07:08:55;100670.53;;;21.05;65.17
72558;BME280;60583;50.094;8.748;2023-09-08T07:11:21;100678.22;;;21.13;65.33
72558;BME280;60583;50.094;8.748;2023-09-08T07:13:46;100684.28;;;21.25;65.52
72558;BME280;60583;50.094;8.748;2023-09-08T07:16:12;100692.47;;;21.35;65.21
72558;BME280;60583;50.094;8.748;2023-09-08T07:18:37;100698.00;;;21.50;64.90
72558;BME280;60583;50.094;8.748;2023-09-08T07:21:03;100689.69;;;21.67;64.05
72558;BME280;60583;50.094;8.748;2023-09-08T07:23:29;100690.03;;;21.81;64.05
72558;BME280;60583;50.094;8.748;2023-09-08T07:25:54;100699.09;;;22.01;64.47
72558;BME280;60583;50.094;8.748;2023-09-08T07:28:20;100681.94;;;21.91;63.00
72558;BME280;60583;50.094;8.748;2023-09-08T07:30:45;100685.81;;;22.00;62.11
72558;BME280;60583;50.094;8.748;2023-09-08T07:33:11;100670.28;;;21.95;62.27
72558;BME280;60583;50.094;8.748;2023-09-08T07:35:40;100681.22;;;22.25;62.00
72558;BME280;60583;50.094;8.748;2023-09-08T07:38:06;100684.00;;;22.41;62.02
72558;BME280;60583;50.094;8.748;2023-09-08T07:40:33;100681.28;;;22.56;62.47
72558;BME280;60583;50.094;8.748;2023-09-08T07:42:58;100690.31;;;22.81;62.53
72558;BME280;60583;50.094;8.748;2023-09-08T07:45:23;100676.72;;;22.86;60.74
72558;BME280;60583;50.094;8.748;2023-09-08T07:47:49;100679.41;;;23.22;60.06
72558;BME280;60583;50.094;8.748;2023-09-08T07:50:23;100678.84;;;23.35;60.79
72558;BME280;60583;50.094;8.748;2023-09-08T07:52:50;100683.16;;;23.66;59.06
72558;BME280;60583;50.094;8.748;2023-09-08T07:55:15;100684.50;;;23.79;57.09
72558;BME280;60583;50.094;8.748;2023-09-08T07:57:46;100683.13;;;23.76;57.20
72558;BME280;60583;50.094;8.748;2023-09-08T08:00:12;100671.97;;;23.68;56.26
72558;BME280;60583;50.094;8.748;2023-09-08T08:02:48;100685.28;;;23.79;56.14
72558;BME280;60583;50.094;8.748;2023-09-08T08:05:14;100693.44;;;23.84;56.61
72558;BME280;60583;50.094;8.748;2023-09-08T08:07:39;100692.59;;;23.94;56.10
72558;BME280;60583;50.094;8.748;2023-09-08T08:10:09;100670.41;;;24.21;56.34
72558;BME280;60583;50.094;8.748;2023-09-08T08:12:35;100680.47;;;24.25;55.83
72558;BME280;60583;50.094;8.748;2023-09-08T08:15:01;100676.88;;;24.30;55.21
72558;BME280;60583;50.094;8.748;2023-09-08T08:17:27;100692.22;;;24.64;54.28
72558;BME280;60583;50.094;8.748;2023-09-08T08:19:55;100697.75;;;24.54;54.49
72558;BME280;60583;50.094;8.748;2023-09-08T08:22:21;100700.47;;;24.54;53.61
72558;BME280;60583;50.094;8.748;2023-09-08T08:24:47;100692.28;;;24.54;53.85
72558;BME280;60583;50.094;8.748;2023-09-08T08:27:12;100684.88;;;24.60;53.38
72558;BME280;60583;50.094;8.748;2023-09-08T08:29:38;100684.47;;;24.77;54.15
72558;BME280;60583;50.094;8.748;2023-09-08T08:32:04;100688.28;;;24.81;52.39
72558;BME280;60583;50.094;8.748;2023-09-08T08:34:29;100696.44;;;24.86;52.91
72558;BME280;60583;50.094;8.748;2023-09-08T08:36:55;100687.91;;;24.97;52.18
72558;BME280;60583;50.094;8.748;2023-09-08T08:39:20;100691.47;;;25.21;52.31
72558;BME280;60583;50.094;8.748;2023-09-08T08:41:45;100685.81;;;25.42;52.87
72558;BME280;60583;50.094;8.748;2023-09-08T08:44:11;100683.53;;;25.54;50.06
72558;BME280;60583;50.094;8.748;2023-09-08T08:46:37;100682.38;;;25.60;50.16
72558;BME280;60583;50.094;8.748;2023-09-08T08:49:03;100686.97;;;25.64;49.83
72558;BME280;60583;50.094;8.748;2023-09-08T08:51:30;100682.16;;;25.98;50.07
72558;BME280;60583;50.094;8.748;2023-09-08T08:53:56;100685.09;;;26.26;48.98
72558;BME280;60583;50.094;8.748;2023-09-08T08:56:22;100684.75;;;26.32;49.55
72558;BME280;60583;50.094;8.748;2023-09-08T08:58:49;100672.97;;;26.32;48.52
72558;BME280;60583;50.094;8.748;2023-09-08T09:01:16;100662.13;;;26.45;48.01
72558;BME280;60583;50.094;8.748;2023-09-08T09:03:42;100669.94;;;26.71;49.41
72558;BME280;60583;50.094;8.748;2023-09-08T09:06:10;100668.31;;;26.70;48.08
72558;BME280;60583;50.094;8.748;2023-09-08T09:08:36;100668.72;;;26.95;46.66
72558;BME280;60583;50.094;8.748;2023-09-08T09:11:02;100664.41;;;27.21;45.27
72558;BME280;60583;50.094;8.748;2023-09-08T09:13:27;100652.59;;;26.94;45.38
72558;BME280;60583;50.094;8.748;2023-09-08T09:15:58;100660.78;;;27.26;44.95
72558;BME280;60583;50.094;8.748;2023-09-08T09:18:24;100667.09;;;27.40;44.61
72558;BME280;60583;50.094;8.748;2023-09-08T09:20:57;100660.63;;;27.63;44.50
72558;BME280;60583;50.094;8.748;2023-09-08T09:23:33;100642.53;;;27.62;44.57
72558;BME280;60583;50.094;8.748;2023-09-08T09:26:01;100666.31;;;27.53;43.66
72558;BME280;60583;50.094;8.748;2023-09-08T09:28:29;100662.00;;;28.15;42.32
72558;BME280;60583;50.094;8.748;2023-09-08T09:30:55;100668.56;;;28.28;42.49
72558;BME280;60583;50.094;8.748;2023-09-08T09:33:21;100658.31;;;28.33;42.61
72558;BME280;60583;50.094;8.748;2023-09-08T09:35:54;100668.03;;;28.75;41.55
72558;BME280;60583;50.094;8.748;2023-09-08T09:38:20;100659.25;;;28.95;40.91
72558;BME280;60583;50.094;8.748;2023-09-08T09:40:47;100670.00;;;29.05;40.72
72558;BME280;60583;50.094;8.748;2023-09-08T09:43:14;100653.09;;;29.43;39.75
72558;BME280;60583;50.094;8.748;2023-09-08T09:45:41;100653.78;;;29.57;38.77
72558;BME280;60583;50.094;8.748;2023-09-08T09:48:08;100651.56;;;29.67;38.22
72558;BME280;60583;50.094;8.748;2023-09-08T09:50:36;100662.06;;;30.13;37.50
72558;BME280;60583;50.094;8.748;2023-09-08T09:53:09;100648.94;;;30.79;36.47
72558;BME280;60583;50.094;8.748;2023-09-08T09:55:37;100650.25;;;30.56;36.92
72558;BME280;60583;50.094;8.748;2023-09-08T09:58:05;100644.22;;;30.88;35.99
72558;BME280;60583;50.094;8.748;2023-09-08T10:00:32;100660.50;;;31.74;34.48
72558;BME280;60583;50.094;8.748;2023-09-08T10:02:58;100641.53;;;32.01;33.26
72558;BME280;60583;50.094;8.748;2023-09-08T10:05:24;100650.44;;;32.81;32.61
72558;BME280;60583;50.094;8.748;2023-09-08T10:07:51;100641.63;;;33.93;31.21
72558;BME280;60583;50.094;8.748;2023-09-08T10:10:17;100645.66;;;34.75;29.19
72558;BME280;60583;50.094;8.748;2023-09-08T10:12:44;100637.69;;;35.64;28.46
72558;BME280;60583;50.094;8.748;2023-09-08T10:15:11;100636.53;;;36.54;28.92
72558;BME280;60583;50.094;8.748;2023-09-08T10:17:37;100641.66;;;36.32;27.89
72558;BME280;60583;50.094;8.748;2023-09-08T10:20:04;100635.59;;;36.08;27.85
72558;BME280;60583;50.094;8.748;2023-09-08T10:22:38;100633.38;;;36.93;28.08
72558;BME280;60583;50.094;8.748;2023-09-08T10:25:06;100634.25;;;37.20;26.60
72558;BME280;60583;50.094;8.748;2023-09-08T10:27:33;100635.00;;;37.40;26.22
72558;BME280;60583;50.094;8.748;2023-09-08T10:30:03;100618.41;;;38.59;25.24
72558;BME280;60583;50.094;8.748;2023-09-08T10:32:33;100627.88;;;39.24;25.09
72558;BME280;60583;50.094;8.748;2023-09-08T10:35:01;100627.41;;;39.66;23.83
72558;BME280;60583;50.094;8.748;2023-09-08T10:37:28;100610.75;;;39.80;23.64
72558;BME280;60583;50.094;8.748;2023-09-08T10:39:55;100623.16;;;40.76;23.11
72558;BME280;60583;50.094;8.748;2023-09-08T10:42:23;100589.97;;;39.81;24.11
72558;BME280;60583;50.094;8.748;2023-09-08T10:44:58;100601.53;;;40.59;23.09
72558;BME280;60583;50.094;8.748;2023-09-08T10:50:27;100591.94;;;40.67;21.97
72558;BME280;60583;50.094;8.748;2023-09-08T10:53:15;100597.88;;;39.69;23.68
72558;BME280;60583;50.094;8.748;2023-09-08T10:55:42;100603.91;;;39.74;23.45
72558;BME280;60583;50.094;8.748;2023-09-08T10:58:10;100605.75;;;38.68;25.20
72558;BME280;60583;50.094;8.748;2023-09-08T11:00:46;100592.75;;;40.53;24.03
72558;BME280;60583;50.094;8.748;2023-09-08T11:03:13;100594.13;;;40.08;23.32
72558;BME280;60583;50.094;8.748;2023-09-08T11:05:41;100596.38;;;40.79;23.18
72558;BME280;60583;50.094;8.748;2023-09-08T11:08:07;100596.03;;;40.98;21.32
72558;BME280;60583;50.094;8.748;2023-09-08T11:10:32;100598.00;;;40.97;21.69
72558;BME280;60583;50.094;8.748;2023-09-08T11:12:58;100591.88;;;42.15;20.82
72558;BME280;60583;50.094;8.748;2023-09-08T11:15:25;100594.78;;;41.73;21.15
72558;BME280;60583;50.094;8.748;2023-09-08T11:17:50;100598.00;;;41.78;21.37
72558;BME280;60583;50.094;8.748;2023-09-08T11:20:16;100582.38;;;41.60;20.19
72558;BME280;60583;50.094;8.748;2023-09-08T11:22:43;100587.81;;;42.23;20.23
72558;BME280;60583;50.094;8.748;2023-09-08T11:25:09;100579.16;;;41.79;20.63
72558;BME280;60583;50.094;8.748;2023-09-08T11:27:37;100581.19;;;42.65;19.92
72558;BME280;60583;50.094;8.748;2023-09-08T11:30:06;100572.44;;;42.60;19.76
72558;BME280;60583;50.094;8.748;2023-09-08T11:32:33;100586.38;;;41.76;20.56
72558;BME280;60583;50.094;8.748;2023-09-08T11:35:07;100573.16;;;41.80;21.11
72558;BME280;60583;50.094;8.748;2023-09-08T11:37:36;100579.59;;;41.53;21.32
72558;BME280;60583;50.094;8.748;2023-09-08T11:40:02;100569.41;;;42.19;20.01
72558;BME280;60583;50.094;8.748;2023-09-08T11:42:28;100559.34;;;42.90;19.07
72558;BME280;60583;50.094;8.748;2023-09-08T11:44:56;100555.41;;;42.08;19.86
72558;BME280;60583;50.094;8.748;2023-09-08T11:47:22;100556.75;;;41.75;20.05
72558;BME280;60583;50.094;8.748;2023-09-08T11:49:48;100561.22;;;41.13;20.84
72558;BME280;60583;50.094;8.748;2023-09-08T11:52:13;100553.72;;;42.32;20.48
72558;BME280;60583;50.094;8.748;2023-09-08T11:54:38;100551.78;;;42.84;19.62
72558;BME280;60583;50.094;8.748;2023-09-08T11:57:04;100556.16;;;42.92;19.64
72558;BME280;60583;50.094;8.748;2023-09-08T11:59:34;100554.94;;;42.27;19.83
72558;BME280;60583;50.094;8.748;2023-09-08T12:02:00;100558.56;;;42.90;19.02
72558;BME280;60583;50.094;8.748;2023-09-08T12:04:27;100555.28;;;43.02;19.06
72558;BME280;60583;50.094;8.748;2023-09-08T12:06:54;100554.63;;;42.11;20.84
72558;BME280;60583;50.094;8.748;2023-09-08T12:09:21;100554.28;;;41.88;20.73
72558;BME280;60583;50.094;8.748;2023-09-08T12:11:47;100553.19;;;41.54;21.17
72558;BME280;60583;50.094;8.748;2023-09-08T12:14:13;100539.16;;;40.55;21.65
72558;BME280;60583;50.094;8.748;2023-09-08T12:16:40;100552.75;;;40.53;21.79
72558;BME280;60583;50.094;8.748;2023-09-08T12:19:07;100531.19;;;40.64;21.81
72558;BME280;60583;50.094;8.748;2023-09-08T12:21:54;100534.56;;;40.01;22.00
72558;BME280;60583;50.094;8.748;2023-09-08T12:24:19;100545.97;;;40.57;21.15
72558;BME280;60583;50.094;8.748;2023-09-08T12:26:45;100536.00;;;41.02;20.55
72558;BME280;60583;50.094;8.748;2023-09-08T12:29:12;100541.19;;;41.14;21.38
72558;BME280;60583;50.094;8.748;2023-09-08T12:31:37;100545.63;;;41.29;19.77
72558;BME280;60583;50.094;8.748;2023-09-08T12:34:03;100538.38;;;41.43;20.56
72558;BME280;60583;50.094;8.748;2023-09-08T12:36:28;100540.72;;;41.62;19.77
72558;BME280;60583;50.094;8.748;2023-09-08T12:38:55;100542.38;;;41.42;20.21
72558;BME280;60583;50.094;8.748;2023-09-08T12:41:20;100532.66;;;40.19;20.26
72558;BME280;60583;50.094;8.748;2023-09-08T12:43:45;100526.25;;;40.11;20.63
72558;BME280;60583;50.094;8.748;2023-09-08T12:46:11;100539.47;;;40.22;20.49
72558;BME280;60583;50.094;8.748;2023-09-08T12:48:37;100529.53;;;40.45;20.78